Terminal Aerodrome Forecast
Issued by NWS

Home | Current Version | Previous Version | Text Only | Print | Product List | Glossary On
Versions: 1 2 3 4 5 6 7 8 9 10 11 12
000
FTUS45 KGGW 181700 RRA
TAFSDY
TAF
KSDY 181741Z 1818/1918 18016KT P6SM FEW100
     FM181900 33022G36KT P6SM BKN100
     FM190600 31013KT P6SM SCT120
     FM191200 30016KT P6SM BKN050
      AMD LTD TO CLD VIS AND WIND=

USA.gov is the U.S. government's official web portal to all federal, state and local government web resources and services.